Vitsentzos Kornaros — SXNX — position and weather

sailwx.info

Track history (hours):
 
Tides and Currents Weather Stations Pressure Air Temp Water Temp Dewpoint Dewpoint Depression Visibility Wind Speed Wind Dir Waves Ship Positions

Vitsentzos Kornaros

Last reported at 2016-Jun-24 18:30 UTC. Time now 2016-Jun-25 14:18 UTC.
Position N 36°57' E 023°26'.

Length 128 m; draft 4.5 m.

Type: Passenger vessel. MMSI: 239311000.

Date/timePositionNaut miles runAvg speedWind from/ knotsBaromVisibWave heightAir tempDewpointWater temp
2016-Jun-24 18:30N 36°57' E 023°26'1414.9
2016-Jun-24 17:34N 37°11' E 023°32'1515.2
2016-Jun-24 16:33N 37°25' E 023°38'1514.6
2016-Jun-24 15:33N 37°39' E 023°42'1514.8
2016-Jun-24 14:34N 37°54' E 023°37'3 3.4
2016-Jun-24 13:33N 37°57' E 023°38'0 0.0
2016-Jun-24 12:33N 37°57' E 023°38'0 0.0
2016-Jun-24 11:33N 37°57' E 023°38'0 0.0
2016-Jun-24 10:33N 37°57' E 023°38'0 0.0
2016-Jun-24 09:33N 37°57' E 023°38'0 0.0
2016-Jun-24 08:33N 37°57' E 023°38'0 0.0
2016-Jun-24 07:33N 37°57' E 023°38'0 0.0
2016-Jun-24 04:33N 37°57' E 023°38'0 0.1
2016-Jun-24 03:33N 37°57' E 023°38'6 6.0
2016-Jun-24 02:33N 37°51' E 023°40'1413.7
2016-Jun-24 01:33N 37°38' E 023°44'1514.7
2016-Jun-24 00:33N 37°24' E 023°37'1414.5
2016-Jun-23 23:33N 37°10' E 023°31'2014.7
2016-Jun-23 22:12N 36°51' E 023°23'8 0.2
2016-Jun-21 18:25N 36°59' E 023°26'1214.3
2016-Jun-21 17:33N 37°10' E 023°32'1514.6
2016-Jun-21 16:34N 37°24' E 023°37'1514.5
2016-Jun-21 15:34N 37°38' E 023°42'1414.4
2016-Jun-21 14:33N 37°52' E 023°37'5 4.8
2016-Jun-21 13:34N 37°57' E 023°38'1 0.2
2016-Jun-21 08:11N 37°56' E 023°37'812.9
2016-Jun-21 07:33N 37°49' E 023°41'1413.7
2016-Jun-21 06:33N 37°35' E 023°43'2914.5
2016-Jun-21 04:33N 37°08' E 023°30'1514.9
2016-Jun-21 03:33N 36°54' E 023°24'1515.0
2016-Jun-21 02:33N 36°39' E 023°19'4210.4
2016-Jun-20 22:33N 35°58' E 023°16'13 9.2
2016-Jun-20 21:10N 35°48' E 023°26'1314.9
2016-Jun-20 20:17N 35°38' E 023°37'1 0.5
2016-Jun-20 18:17N 35°39' E 023°37'1115.2
2016-Jun-20 17:33N 35°49' E 023°30'1515.4
2016-Jun-20 16:33N 36°02' E 023°19'  
2016-Jun-18 08:04N 36°07' E 023°15'714.3
2016-Jun-18 07:33N 36°00' E 023°20'1414.2
2016-Jun-18 06:33N 35°49' E 023°30'11 2.1
2016-Jun-18 01:16N 35°39' E 023°36'7910.3
2016-Jun-17 17:33N 36°58' E 023°26'1514.7
2016-Jun-17 16:34N 37°12' E 023°32'1514.5
2016-Jun-17 15:34N 37°26' E 023°38'1514.7
2016-Jun-17 14:34N 37°40' E 023°42'1414.5
2016-Jun-17 13:34N 37°54' E 023°37'3 3.1
2016-Jun-17 12:33N 37°57' E 023°38'0 0.0
2016-Jun-17 11:33N 37°57' E 023°38'0 0.0
2016-Jun-17 10:34N 37°57' E 023°38'0 0.0
2016-Jun-17 09:33N 37°57' E 023°38'0 0.0
2016-Jun-17 08:33N 37°57' E 023°38'0 0.0
2016-Jun-17 07:33N 37°57' E 023°38'0 0.0
2016-Jun-17 06:33N 37°57' E 023°38'0 0.0
2016-Jun-17 05:33N 37°57' E 023°38'0 0.0
2016-Jun-17 04:33N 37°57' E 023°38'0 0.0
2016-Jun-17 03:34N 37°57' E 023°38'4 4.5
2016-Jun-17 02:34N 37°52' E 023°39'1414.4
2016-Jun-17 01:34N 37°39' E 023°45'1514.9
2016-Jun-17 00:33N 37°25' E 023°38'1515.1
2016-Jun-16 23:33N 37°11' E 023°32'1514.7
2016-Jun-16 22:33N 36°57' E 023°25'1515.3
2016-Jun-16 21:33N 36°42' E 023°20'5610.6
2016-Jun-16 16:17N 35°47' E 023°30'1115.1
2016-Jun-16 15:33N 35°37' E 023°37'  
Track history (hours):
 
Tides and Currents Weather Stations Pressure Air Temp Water Temp Dewpoint Dewpoint Depression Visibility Wind Speed Wind Dir Waves Ship Positions

Vitsentzos Kornaros

Last reported at 2016-Jun-24 18:30 UTC. Time now 2016-Jun-25 14:18 UTC.
Position N 36°57' E 023°26'.

Length 128 m; draft 4.5 m.

Type: Passenger vessel. MMSI: 239311000.

Date/timePositionNaut miles runAvg speedWind from/ knotsBaromVisibWave heightAir tempDewpointWater temp
2016-Jun-24 18:30N 36°57' E 023°26'1414.9
2016-Jun-24 17:34N 37°11' E 023°32'1515.2
2016-Jun-24 16:33N 37°25' E 023°38'1514.6
2016-Jun-24 15:33N 37°39' E 023°42'1514.8
2016-Jun-24 14:34N 37°54' E 023°37'3 3.4
2016-Jun-24 13:33N 37°57' E 023°38'0 0.0
2016-Jun-24 12:33N 37°57' E 023°38'0 0.0
2016-Jun-24 11:33N 37°57' E 023°38'0 0.0
2016-Jun-24 10:33N 37°57' E 023°38'0 0.0
2016-Jun-24 09:33N 37°57' E 023°38'0 0.0
2016-Jun-24 08:33N 37°57' E 023°38'0 0.0
2016-Jun-24 07:33N 37°57' E 023°38'0 0.0
2016-Jun-24 04:33N 37°57' E 023°38'0 0.1
2016-Jun-24 03:33N 37°57' E 023°38'6 6.0
2016-Jun-24 02:33N 37°51' E 023°40'1413.7
2016-Jun-24 01:33N 37°38' E 023°44'1514.7
2016-Jun-24 00:33N 37°24' E 023°37'1414.5
2016-Jun-23 23:33N 37°10' E 023°31'2014.7
2016-Jun-23 22:12N 36°51' E 023°23'8 0.2
2016-Jun-21 18:25N 36°59' E 023°26'1214.3
2016-Jun-21 17:33N 37°10' E 023°32'1514.6
2016-Jun-21 16:34N 37°24' E 023°37'1514.5
2016-Jun-21 15:34N 37°38' E 023°42'1414.4
2016-Jun-21 14:33N 37°52' E 023°37'5 4.8
2016-Jun-21 13:34N 37°57' E 023°38'1 0.2
2016-Jun-21 08:11N 37°56' E 023°37'812.9
2016-Jun-21 07:33N 37°49' E 023°41'1413.7
2016-Jun-21 06:33N 37°35' E 023°43'2914.5
2016-Jun-21 04:33N 37°08' E 023°30'1514.9
2016-Jun-21 03:33N 36°54' E 023°24'1515.0
2016-Jun-21 02:33N 36°39' E 023°19'4210.4
2016-Jun-20 22:33N 35°58' E 023°16'13 9.2
2016-Jun-20 21:10N 35°48' E 023°26'1314.9
2016-Jun-20 20:17N 35°38' E 023°37'1 0.5
2016-Jun-20 18:17N 35°39' E 023°37'1115.2
2016-Jun-20 17:33N 35°49' E 023°30'1515.4
2016-Jun-20 16:33N 36°02' E 023°19'  
2016-Jun-18 08:04N 36°07' E 023°15'714.3
2016-Jun-18 07:33N 36°00' E 023°20'1414.2
2016-Jun-18 06:33N 35°49' E 023°30'11 2.1
2016-Jun-18 01:16N 35°39' E 023°36'7910.3
2016-Jun-17 17:33N 36°58' E 023°26'1514.7
2016-Jun-17 16:34N 37°12' E 023°32'1514.5
2016-Jun-17 15:34N 37°26' E 023°38'1514.7
2016-Jun-17 14:34N 37°40' E 023°42'1414.5
2016-Jun-17 13:34N 37°54' E 023°37'3 3.1
2016-Jun-17 12:33N 37°57' E 023°38'0 0.0
2016-Jun-17 11:33N 37°57' E 023°38'0 0.0
2016-Jun-17 10:34N 37°57' E 023°38'0 0.0
2016-Jun-17 09:33N 37°57' E 023°38'0 0.0
2016-Jun-17 08:33N 37°57' E 023°38'0 0.0
2016-Jun-17 07:33N 37°57' E 023°38'0 0.0
2016-Jun-17 06:33N 37°57' E 023°38'0 0.0
2016-Jun-17 05:33N 37°57' E 023°38'0 0.0
2016-Jun-17 04:33N 37°57' E 023°38'0 0.0
2016-Jun-17 03:34N 37°57' E 023°38'4 4.5
2016-Jun-17 02:34N 37°52' E 023°39'1414.4
2016-Jun-17 01:34N 37°39' E 023°45'1514.9
2016-Jun-17 00:33N 37°25' E 023°38'1515.1
2016-Jun-16 23:33N 37°11' E 023°32'1514.7
2016-Jun-16 22:33N 36°57' E 023°25'1515.3
2016-Jun-16 21:33N 36°42' E 023°20'5610.6
2016-Jun-16 16:17N 35°47' E 023°30'1115.1
2016-Jun-16 15:33N 35°37' E 023°37'  

Dump ship's entire track history